Greenview, CA (96037)

8:02 AM PDT on September 20, 2014 (GMT -0700)
KCAETNA3 | Change Station
CLOSE
Current Station
Personal Weather Station
Location: Island Rd, Scott Valley, CA
Elevation: 2728 ft
Nearby Weather Stations

Elev 2728 ft 41.55 °N, 122.85 °W | Updated 2 seconds ago

Clear
Clear
48.6 °F
Feels Like 49 °F
N
0.0
Wind Variable Wind from WSW
Gusts 2.0 mph

Today
High -- | Low -- °F
--% Chance of Precip.
Yesterday
High -- | Low -- °F
Precip. -- in
6:57 AM 7:12 PM
Waning Crescent, 12% visible
Pressure 30.04 in
Visibility 10.0 miles
Clouds Clear
Windchill 49 °F
Dew Point 48 °F
Humidity 96%
Rainfall 0.00 in
Snow Depth 0 in , 0 in , 1 in
UV 0 out of 12
Pollen 4.10 out of 12
Air Quality Not available.
Flu Activity Not available.
METAR KSIY 201453Z AUTO 00000KT 10SM CLR 13/04 A3006 RMK AO2 SLP170 T01280039 53009

More Conditions Fewer Conditions

Pressure 30.04 in
Visibility 10.0 miles
Clouds Clear
Windchill 49 °F
Dew Point 48 °F
Humidity 96%
Rainfall 0.00 in
Snow Depth 0 in , 0 in , 1 in
UV 0 out of 12
Pollen 4.10 out of 12
Air Quality Not available.
Flu Activity Not available.
METAR KSIY 201453Z AUTO 00000KT 10SM CLR 13/04 A3006 RMK AO2 SLP170 T01280039 53009

More Conditions Fewer Conditions

10-Day Weather Forecast

Almanac

Astronomy

Sep. 20, 2014 Rise Set
Actual Time 6:57 AM PDT 7:12 PM PDT
Civil Twilight 6:29 AM PDT 7:39 PM PDT
Nautical Twilight 5:56 AM PDT 8:12 PM PDT
Astronomical Twilight 5:23 AM PDT 8:45 PM PDT
Moon 3:39 AM PDT 5:20 PM PDT
Length of Visible Light 13h 10m
Length of Day
12h 14m
Tomorrow will be 2m 44s shorter.
Waning Crescent, 12% of the Moon is Illuminated
Today
Waning Crescent
Sep 24
New
Oct 1
First Quarter
Oct 8
Full
Oct 15
Last Quarter

Today's Extremes

State Highs State Lows

Community

WunderPhotos

Upload Photos

1,754,876 photos uploaded!

WunderBlogs® & News

Nearby

Snow Depth

Station Depth Elevation
Sonora Pass 0 in 8800 ft
Rubicon #2 0 in 7500 ft
Tahoe City Cross 0 in 6750 ft
Summit Meadow 1 in 9122 ft
Spratt Creek 1 in 6200 ft

Earthquake Activity

City Distance Mag. Time & Date
No recent earthquake activity has been reported nearby.
Minimum magnitude displayed is 2.5.

Coastal Water Temperatures

Place Temperature
No Stations Reporting

Nearby Weather Stations